sensor_id;sensor_type;location;lat;lon;timestamp;temperature;humidity
11497;DHT22;5805;51.542;7.230;2022-08-25T00:01:52;24.50;94.30
11497;DHT22;5805;51.542;7.230;2022-08-25T00:04:19;24.40;94.20
11497;DHT22;5805;51.542;7.230;2022-08-25T00:06:46;24.40;94.10
11497;DHT22;5805;51.542;7.230;2022-08-25T00:09:14;24.40;94.30
11497;DHT22;5805;51.542;7.230;2022-08-25T00:11:42;24.30;94.40
11497;DHT22;5805;51.542;7.230;2022-08-25T00:14:10;24.20;94.50
11497;DHT22;5805;51.542;7.230;2022-08-25T00:16:36;24.30;94.40
11497;DHT22;5805;51.542;7.230;2022-08-25T00:19:06;24.20;94.30
11497;DHT22;5805;51.542;7.230;2022-08-25T00:21:33;24.20;94.50
11497;DHT22;5805;51.542;7.230;2022-08-25T00:24:00;24.10;94.80
11497;DHT22;5805;51.542;7.230;2022-08-25T00:26:26;24.00;94.90
11497;DHT22;5805;51.542;7.230;2022-08-25T00:28:53;24.10;94.70
11497;DHT22;5805;51.542;7.230;2022-08-25T00:31:20;24.00;95.10
11497;DHT22;5805;51.542;7.230;2022-08-25T00:33:46;24.00;95.30
11497;DHT22;5805;51.542;7.230;2022-08-25T00:36:12;24.00;95.20
11497;DHT22;5805;51.542;7.230;2022-08-25T00:38:39;24.00;95.10
11497;DHT22;5805;51.542;7.230;2022-08-25T00:41:05;24.00;95.10
11497;DHT22;5805;51.542;7.230;2022-08-25T00:43:34;23.90;95.30
11497;DHT22;5805;51.542;7.230;2022-08-25T00:46:01;23.90;95.40
11497;DHT22;5805;51.542;7.230;2022-08-25T00:48:26;23.90;95.50
11497;DHT22;5805;51.542;7.230;2022-08-25T00:50:52;23.80;95.60
11497;DHT22;5805;51.542;7.230;2022-08-25T00:53:18;23.80;95.80
11497;DHT22;5805;51.542;7.230;2022-08-25T00:55:44;23.80;96.00
11497;DHT22;5805;51.542;7.230;2022-08-25T00:58:17;23.80;95.90
11497;DHT22;5805;51.542;7.230;2022-08-25T01:00:46;23.70;96.10
11497;DHT22;5805;51.542;7.230;2022-08-25T01:03:15;23.70;96.10
11497;DHT22;5805;51.542;7.230;2022-08-25T01:05:42;23.70;96.20
11497;DHT22;5805;51.542;7.230;2022-08-25T01:08:08;23.70;96.10
11497;DHT22;5805;51.542;7.230;2022-08-25T01:10:36;23.70;96.10
11497;DHT22;5805;51.542;7.230;2022-08-25T01:13:07;23.70;96.00
11497;DHT22;5805;51.542;7.230;2022-08-25T01:15:34;23.70;95.90
11497;DHT22;5805;51.542;7.230;2022-08-25T01:18:00;23.70;96.10
11497;DHT22;5805;51.542;7.230;2022-08-25T01:20:30;23.60;96.20
11497;DHT22;5805;51.542;7.230;2022-08-25T01:22:57;23.50;96.50
11497;DHT22;5805;51.542;7.230;2022-08-25T01:25:31;23.50;96.60
11497;DHT22;5805;51.542;7.230;2022-08-25T01:27:59;23.50;96.70
11497;DHT22;5805;51.542;7.230;2022-08-25T01:30:25;23.50;96.70
11497;DHT22;5805;51.542;7.230;2022-08-25T01:32:51;23.40;96.70
11497;DHT22;5805;51.542;7.230;2022-08-25T01:35:17;23.40;96.90
11497;DHT22;5805;51.542;7.230;2022-08-25T01:37:42;23.40;97.00
11497;DHT22;5805;51.542;7.230;2022-08-25T01:40:10;23.40;97.30
11497;DHT22;5805;51.542;7.230;2022-08-25T01:42:46;23.30;97.40
11497;DHT22;5805;51.542;7.230;2022-08-25T01:45:17;23.30;97.50
11497;DHT22;5805;51.542;7.230;2022-08-25T01:47:42;23.30;97.50
11497;DHT22;5805;51.542;7.230;2022-08-25T01:50:09;23.30;97.50
11497;DHT22;5805;51.542;7.230;2022-08-25T01:52:40;23.40;97.50
11497;DHT22;5805;51.542;7.230;2022-08-25T01:55:10;23.30;97.80
11497;DHT22;5805;51.542;7.230;2022-08-25T01:57:36;23.20;98.10
11497;DHT22;5805;51.542;7.230;2022-08-25T02:00:04;23.20;98.40
11497;DHT22;5805;51.542;7.230;2022-08-25T02:02:30;23.10;98.70
11497;DHT22;5805;51.542;7.230;2022-08-25T02:04:56;23.10;98.70
11497;DHT22;5805;51.542;7.230;2022-08-25T02:07:21;23.10;98.70
11497;DHT22;5805;51.542;7.230;2022-08-25T02:09:47;23.10;98.80
11497;DHT22;5805;51.542;7.230;2022-08-25T02:12:14;23.00;99.10
11497;DHT22;5805;51.542;7.230;2022-08-25T02:14:40;22.90;99.40
11497;DHT22;5805;51.542;7.230;2022-08-25T02:17:06;22.90;99.70
11497;DHT22;5805;51.542;7.230;2022-08-25T02:19:32;23.00;99.40
11497;DHT22;5805;51.542;7.230;2022-08-25T02:21:59;23.00;99.20
11497;DHT22;5805;51.542;7.230;2022-08-25T02:24:25;23.00;99.30
11497;DHT22;5805;51.542;7.230;2022-08-25T02:26:51;22.90;99.50
11497;DHT22;5805;51.542;7.230;2022-08-25T02:29:18;22.90;99.60
11497;DHT22;5805;51.542;7.230;2022-08-25T02:31:44;22.80;99.70
11497;DHT22;5805;51.542;7.230;2022-08-25T02:34:10;22.90;99.50
11497;DHT22;5805;51.542;7.230;2022-08-25T02:36:37;22.90;99.50
11497;DHT22;5805;51.542;7.230;2022-08-25T02:39:04;22.80;99.50
11497;DHT22;5805;51.542;7.230;2022-08-25T02:41:30;22.80;99.70
11497;DHT22;5805;51.542;7.230;2022-08-25T02:43:55;22.80;99.50
11497;DHT22;5805;51.542;7.230;2022-08-25T02:46:23;22.80;99.80
11497;DHT22;5805;51.542;7.230;2022-08-25T02:48:48;22.80;99.90
11497;DHT22;5805;51.542;7.230;2022-08-25T02:51:14;22.70;99.90
11497;DHT22;5805;51.542;7.230;2022-08-25T02:53:41;22.70;99.90
11497;DHT22;5805;51.542;7.230;2022-08-25T02:56:08;22.60;99.90
11497;DHT22;5805;51.542;7.230;2022-08-25T02:58:35;22.60;99.90
11497;DHT22;5805;51.542;7.230;2022-08-25T03:01:01;22.50;99.90
11497;DHT22;5805;51.542;7.230;2022-08-25T03:03:29;22.50;99.90
11497;DHT22;5805;51.542;7.230;2022-08-25T03:05:55;22.50;99.90
11497;DHT22;5805;51.542;7.230;2022-08-25T03:08:21;22.50;99.90
11497;DHT22;5805;51.542;7.230;2022-08-25T03:10:47;22.40;99.90
11497;DHT22;5805;51.542;7.230;2022-08-25T03:13:12;22.40;99.90
11497;DHT22;5805;51.542;7.230;2022-08-25T03:15:38;22.40;99.90
11497;DHT22;5805;51.542;7.230;2022-08-25T03:18:04;22.40;99.90
11497;DHT22;5805;51.542;7.230;2022-08-25T03:20:31;22.30;99.90
11497;DHT22;5805;51.542;7.230;2022-08-25T03:22:57;22.30;99.90
11497;DHT22;5805;51.542;7.230;2022-08-25T03:25:23;22.30;99.90
11497;DHT22;5805;51.542;7.230;2022-08-25T03:27:49;22.30;99.90
11497;DHT22;5805;51.542;7.230;2022-08-25T03:30:15;22.30;99.90
11497;DHT22;5805;51.542;7.230;2022-08-25T03:32:40;22.20;99.90
11497;DHT22;5805;51.542;7.230;2022-08-25T03:35:07;22.20;99.90
11497;DHT22;5805;51.542;7.230;2022-08-25T03:37:35;22.20;99.90
11497;DHT22;5805;51.542;7.230;2022-08-25T03:40:01;22.10;99.90
11497;DHT22;5805;51.542;7.230;2022-08-25T03:42:27;22.10;99.90
11497;DHT22;5805;51.542;7.230;2022-08-25T03:44:53;22.10;99.90
11497;DHT22;5805;51.542;7.230;2022-08-25T03:47:19;22.00;99.90
11497;DHT22;5805;51.542;7.230;2022-08-25T03:49:44;22.00;99.90
11497;DHT22;5805;51.542;7.230;2022-08-25T03:52:10;22.00;99.90
11497;DHT22;5805;51.542;7.230;2022-08-25T03:54:37;22.00;99.90
11497;DHT22;5805;51.542;7.230;2022-08-25T03:57:03;22.00;99.90
11497;DHT22;5805;51.542;7.230;2022-08-25T03:59:29;21.90;99.90
11497;DHT22;5805;51.542;7.230;2022-08-25T04:01:55;21.90;99.90
11497;DHT22;5805;51.542;7.230;2022-08-25T04:04:20;21.90;99.90
11497;DHT22;5805;51.542;7.230;2022-08-25T04:06:46;22.00;99.90
11497;DHT22;5805;51.542;7.230;2022-08-25T04:09:12;22.00;99.90
11497;DHT22;5805;51.542;7.230;2022-08-25T04:11:39;21.90;99.90
11497;DHT22;5805;51.542;7.230;2022-08-25T04:14:05;21.90;99.90
11497;DHT22;5805;51.542;7.230;2022-08-25T04:16:32;21.90;99.90
11497;DHT22;5805;51.542;7.230;2022-08-25T04:19:00;21.90;99.90
11497;DHT22;5805;51.542;7.230;2022-08-25T04:21:26;21.80;99.90
11497;DHT22;5805;51.542;7.230;2022-08-25T04:23:53;21.80;99.90
11497;DHT22;5805;51.542;7.230;2022-08-25T04:26:22;21.80;99.90
11497;DHT22;5805;51.542;7.230;2022-08-25T04:28:49;21.80;99.90
11497;DHT22;5805;51.542;7.230;2022-08-25T04:31:16;21.80;99.90
11497;DHT22;5805;51.542;7.230;2022-08-25T04:33:43;21.70;99.90
11497;DHT22;5805;51.542;7.230;2022-08-25T04:36:10;21.70;99.90
11497;DHT22;5805;51.542;7.230;2022-08-25T04:38:35;21.70;99.90
11497;DHT22;5805;51.542;7.230;2022-08-25T04:41:03;21.70;99.90
11497;DHT22;5805;51.542;7.230;2022-08-25T04:43:30;21.70;99.90
11497;DHT22;5805;51.542;7.230;2022-08-25T04:45:58;21.70;99.90
11497;DHT22;5805;51.542;7.230;2022-08-25T04:48:24;21.70;99.90
11497;DHT22;5805;51.542;7.230;2022-08-25T04:50:50;21.70;99.90
11497;DHT22;5805;51.542;7.230;2022-08-25T04:53:16;21.70;99.90
11497;DHT22;5805;51.542;7.230;2022-08-25T04:55:43;21.70;99.90
11497;DHT22;5805;51.542;7.230;2022-08-25T04:58:09;21.70;99.90
11497;DHT22;5805;51.542;7.230;2022-08-25T05:00:35;21.70;99.90
11497;DHT22;5805;51.542;7.230;2022-08-25T05:03:03;21.70;99.90
11497;DHT22;5805;51.542;7.230;2022-08-25T05:05:29;21.80;99.90
11497;DHT22;5805;51.542;7.230;2022-08-25T05:07:55;21.70;99.90
11497;DHT22;5805;51.542;7.230;2022-08-25T05:10:22;21.80;99.90
11497;DHT22;5805;51.542;7.230;2022-08-25T05:12:47;21.80;99.90
11497;DHT22;5805;51.542;7.230;2022-08-25T05:15:13;21.90;99.90
11497;DHT22;5805;51.542;7.230;2022-08-25T05:17:39;21.80;99.90
11497;DHT22;5805;51.542;7.230;2022-08-25T05:20:07;21.90;99.90
11497;DHT22;5805;51.542;7.230;2022-08-25T05:22:33;21.90;99.90
11497;DHT22;5805;51.542;7.230;2022-08-25T05:24:58;21.90;99.90
11497;DHT22;5805;51.542;7.230;2022-08-25T05:27:24;21.90;99.90
11497;DHT22;5805;51.542;7.230;2022-08-25T05:29:50;21.90;99.90
11497;DHT22;5805;51.542;7.230;2022-08-25T05:32:15;21.90;99.90
11497;DHT22;5805;51.542;7.230;2022-08-25T05:34:41;22.00;99.90
11497;DHT22;5805;51.542;7.230;2022-08-25T05:37:08;22.00;99.90
11497;DHT22;5805;51.542;7.230;2022-08-25T05:39:34;22.00;99.90
11497;DHT22;5805;51.542;7.230;2022-08-25T05:41:59;22.00;99.90
11497;DHT22;5805;51.542;7.230;2022-08-25T05:44:25;22.00;99.90
11497;DHT22;5805;51.542;7.230;2022-08-25T05:46:51;22.20;99.90
11497;DHT22;5805;51.542;7.230;2022-08-25T05:49:17;22.30;99.90
11497;DHT22;5805;51.542;7.230;2022-08-25T05:51:42;22.40;99.90
11497;DHT22;5805;51.542;7.230;2022-08-25T05:54:09;22.50;99.90
11497;DHT22;5805;51.542;7.230;2022-08-25T05:56:35;22.60;99.90
11497;DHT22;5805;51.542;7.230;2022-08-25T05:59:01;22.70;99.90
11497;DHT22;5805;51.542;7.230;2022-08-25T06:01:27;22.70;99.90
11497;DHT22;5805;51.542;7.230;2022-08-25T06:03:53;22.80;99.90
11497;DHT22;5805;51.542;7.230;2022-08-25T06:06:20;22.80;99.90
11497;DHT22;5805;51.542;7.230;2022-08-25T06:08:46;22.90;99.90
11497;DHT22;5805;51.542;7.230;2022-08-25T06:11:13;22.90;99.90
11497;DHT22;5805;51.542;7.230;2022-08-25T06:13:39;23.00;99.90
11497;DHT22;5805;51.542;7.230;2022-08-25T06:16:05;23.00;99.90
11497;DHT22;5805;51.542;7.230;2022-08-25T06:18:31;23.00;99.90
11497;DHT22;5805;51.542;7.230;2022-08-25T06:20:57;23.00;99.90
11497;DHT22;5805;51.542;7.230;2022-08-25T06:23:23;23.10;99.90
11497;DHT22;5805;51.542;7.230;2022-08-25T06:25:49;23.20;99.90
11497;DHT22;5805;51.542;7.230;2022-08-25T06:28:17;23.20;99.90
11497;DHT22;5805;51.542;7.230;2022-08-25T06:30:43;23.30;99.90
11497;DHT22;5805;51.542;7.230;2022-08-25T06:33:08;23.40;99.90
11497;DHT22;5805;51.542;7.230;2022-08-25T06:35:34;23.40;99.90
11497;DHT22;5805;51.542;7.230;2022-08-25T06:38:00;23.40;99.90
11497;DHT22;5805;51.542;7.230;2022-08-25T06:40:25;23.40;99.90
11497;DHT22;5805;51.542;7.230;2022-08-25T06:42:51;23.50;99.90
11497;DHT22;5805;51.542;7.230;2022-08-25T06:45:18;23.60;99.90
11497;DHT22;5805;51.542;7.230;2022-08-25T06:47:44;23.60;99.90
11497;DHT22;5805;51.542;7.230;2022-08-25T06:50:10;23.70;99.90
11497;DHT22;5805;51.542;7.230;2022-08-25T06:52:35;23.70;99.90
11497;DHT22;5805;51.542;7.230;2022-08-25T06:55:02;23.80;99.90
11497;DHT22;5805;51.542;7.230;2022-08-25T06:57:28;23.90;99.90
11497;DHT22;5805;51.542;7.230;2022-08-25T06:59:53;23.90;99.90
11497;DHT22;5805;51.542;7.230;2022-08-25T07:02:21;24.00;99.90
11497;DHT22;5805;51.542;7.230;2022-08-25T07:04:46;24.10;99.90
11497;DHT22;5805;51.542;7.230;2022-08-25T07:07:12;24.20;99.90
11497;DHT22;5805;51.542;7.230;2022-08-25T07:09:38;24.20;99.90
11497;DHT22;5805;51.542;7.230;2022-08-25T07:12:04;24.20;99.90
11497;DHT22;5805;51.542;7.230;2022-08-25T07:14:30;24.20;99.90
11497;DHT22;5805;51.542;7.230;2022-08-25T07:16:56;24.20;99.90
11497;DHT22;5805;51.542;7.230;2022-08-25T07:19:23;24.30;99.90
11497;DHT22;5805;51.542;7.230;2022-08-25T07:21:51;24.30;99.90
11497;DHT22;5805;51.542;7.230;2022-08-25T07:24:17;24.30;99.90
11497;DHT22;5805;51.542;7.230;2022-08-25T07:26:43;24.30;99.90
11497;DHT22;5805;51.542;7.230;2022-08-25T07:29:12;24.40;99.90
11497;DHT22;5805;51.542;7.230;2022-08-25T07:31:38;24.50;99.90
11497;DHT22;5805;51.542;7.230;2022-08-25T07:34:04;24.50;99.90
11497;DHT22;5805;51.542;7.230;2022-08-25T07:36:31;24.60;99.90
11497;DHT22;5805;51.542;7.230;2022-08-25T07:38:57;24.60;99.90
11497;DHT22;5805;51.542;7.230;2022-08-25T07:41:23;24.70;99.70
11497;DHT22;5805;51.542;7.230;2022-08-25T07:43:49;24.70;99.70
11497;DHT22;5805;51.542;7.230;2022-08-25T07:46:15;24.80;99.60
11497;DHT22;5805;51.542;7.230;2022-08-25T07:48:40;24.80;99.90
11497;DHT22;5805;51.542;7.230;2022-08-25T07:51:07;24.90;99.50
11497;DHT22;5805;51.542;7.230;2022-08-25T07:53:34;25.00;99.30
11497;DHT22;5805;51.542;7.230;2022-08-25T07:56:00;25.00;99.10
11497;DHT22;5805;51.542;7.230;2022-08-25T07:58:26;25.10;98.90
11497;DHT22;5805;51.542;7.230;2022-08-25T08:00:51;25.10;98.80
11497;DHT22;5805;51.542;7.230;2022-08-25T08:03:17;25.20;98.60
11497;DHT22;5805;51.542;7.230;2022-08-25T08:05:43;25.20;98.60
11497;DHT22;5805;51.542;7.230;2022-08-25T08:08:09;25.30;98.80
11497;DHT22;5805;51.542;7.230;2022-08-25T08:10:38;25.30;98.40
11497;DHT22;5805;51.542;7.230;2022-08-25T08:13:04;25.40;98.10
11497;DHT22;5805;51.542;7.230;2022-08-25T08:15:30;25.50;98.10
11497;DHT22;5805;51.542;7.230;2022-08-25T08:17:55;25.70;97.80
11497;DHT22;5805;51.542;7.230;2022-08-25T08:20:21;25.90;97.30
11497;DHT22;5805;51.542;7.230;2022-08-25T08:22:47;26.10;96.80
11497;DHT22;5805;51.542;7.230;2022-08-25T08:25:13;26.30;96.30
11497;DHT22;5805;51.542;7.230;2022-08-25T08:27:40;26.60;95.50
11497;DHT22;5805;51.542;7.230;2022-08-25T08:30:06;26.90;94.40
11497;DHT22;5805;51.542;7.230;2022-08-25T08:32:32;27.20;93.50
11497;DHT22;5805;51.542;7.230;2022-08-25T08:34:58;27.50;92.90
11497;DHT22;5805;51.542;7.230;2022-08-25T08:37:24;27.70;91.70
11497;DHT22;5805;51.542;7.230;2022-08-25T08:39:49;28.00;91.20
11497;DHT22;5805;51.542;7.230;2022-08-25T08:42:34;28.30;89.50
11497;DHT22;5805;51.542;7.230;2022-08-25T08:45:23;28.60;85.80
11497;DHT22;5805;51.542;7.230;2022-08-25T08:48:02;28.80;84.70
11497;DHT22;5805;51.542;7.230;2022-08-25T08:50:36;29.00;84.20
11497;DHT22;5805;51.542;7.230;2022-08-25T08:53:07;29.30;82.50
11497;DHT22;5805;51.542;7.230;2022-08-25T08:55:36;29.50;81.20
11497;DHT22;5805;51.542;7.230;2022-08-25T08:58:06;29.70;79.80
11497;DHT22;5805;51.542;7.230;2022-08-25T09:00:39;29.80;78.90
11497;DHT22;5805;51.542;7.230;2022-08-25T09:03:09;30.00;75.40
11497;DHT22;5805;51.542;7.230;2022-08-25T09:05:43;30.20;74.90
11497;DHT22;5805;51.542;7.230;2022-08-25T09:08:11;30.30;73.60
11497;DHT22;5805;51.542;7.230;2022-08-25T09:10:44;30.50;73.20
11497;DHT22;5805;51.542;7.230;2022-08-25T09:13:20;30.70;71.60
11497;DHT22;5805;51.542;7.230;2022-08-25T09:15:52;30.80;70.50
11497;DHT22;5805;51.542;7.230;2022-08-25T09:18:27;30.90;69.50
11497;DHT22;5805;51.542;7.230;2022-08-25T09:21:02;31.10;67.80
11497;DHT22;5805;51.542;7.230;2022-08-25T09:23:43;31.20;67.10
11497;DHT22;5805;51.542;7.230;2022-08-25T09:26:24;31.30;66.80
11497;DHT22;5805;51.542;7.230;2022-08-25T09:28:51;31.40;66.00
11497;DHT22;5805;51.542;7.230;2022-08-25T09:31:22;31.60;65.80
11497;DHT22;5805;51.542;7.230;2022-08-25T09:33:50;31.70;64.70
11497;DHT22;5805;51.542;7.230;2022-08-25T09:36:17;31.80;63.70
11497;DHT22;5805;51.542;7.230;2022-08-25T09:38:43;31.90;63.50
11497;DHT22;5805;51.542;7.230;2022-08-25T09:41:08;32.00;63.70
11497;DHT22;5805;51.542;7.230;2022-08-25T09:43:36;32.20;63.10
11497;DHT22;5805;51.542;7.230;2022-08-25T09:46:09;32.30;62.80
11497;DHT22;5805;51.542;7.230;2022-08-25T09:48:45;32.40;62.20
11497;DHT22;5805;51.542;7.230;2022-08-25T09:51:18;32.50;61.50
11497;DHT22;5805;51.542;7.230;2022-08-25T09:53:49;32.60;60.50
11497;DHT22;5805;51.542;7.230;2022-08-25T09:56:18;32.60;59.70
11497;DHT22;5805;51.542;7.230;2022-08-25T09:58:45;32.80;59.90
11497;DHT22;5805;51.542;7.230;2022-08-25T10:01:14;32.90;58.90
11497;DHT22;5805;51.542;7.230;2022-08-25T10:03:55;33.00;58.40
11497;DHT22;5805;51.542;7.230;2022-08-25T10:06:22;33.00;57.80
11497;DHT22;5805;51.542;7.230;2022-08-25T10:08:56;33.00;57.00
11497;DHT22;5805;51.542;7.230;2022-08-25T10:11:35;33.20;57.10
11497;DHT22;5805;51.542;7.230;2022-08-25T10:14:05;33.30;56.70
11497;DHT22;5805;51.542;7.230;2022-08-25T10:16:32;33.40;56.50
11497;DHT22;5805;51.542;7.230;2022-08-25T10:19:06;33.40;56.00
11497;DHT22;5805;51.542;7.230;2022-08-25T10:21:33;33.50;55.70
11497;DHT22;5805;51.542;7.230;2022-08-25T10:23:59;33.60;55.40
11497;DHT22;5805;51.542;7.230;2022-08-25T10:26:32;33.70;55.30
11497;DHT22;5805;51.542;7.230;2022-08-25T10:29:12;33.80;54.40
11497;DHT22;5805;51.542;7.230;2022-08-25T10:31:46;33.80;54.10
11497;DHT22;5805;51.542;7.230;2022-08-25T10:34:24;33.90;54.30
11497;DHT22;5805;51.542;7.230;2022-08-25T10:37:00;34.00;53.60
11497;DHT22;5805;51.542;7.230;2022-08-25T10:39:38;34.00;53.30
11497;DHT22;5805;51.542;7.230;2022-08-25T10:42:17;33.90;53.50
11497;DHT22;5805;51.542;7.230;2022-08-25T10:44:54;34.00;53.70
11497;DHT22;5805;51.542;7.230;2022-08-25T10:47:40;34.00;53.00
11497;DHT22;5805;51.542;7.230;2022-08-25T10:50:26;34.10;53.10
11497;DHT22;5805;51.542;7.230;2022-08-25T10:53:08;34.10;53.00
11497;DHT22;5805;51.542;7.230;2022-08-25T10:55:40;34.10;52.50
11497;DHT22;5805;51.542;7.230;2022-08-25T10:58:14;34.20;52.90
11497;DHT22;5805;51.542;7.230;2022-08-25T11:00:54;34.10;52.40
11497;DHT22;5805;51.542;7.230;2022-08-25T11:03:31;34.20;52.30
11497;DHT22;5805;51.542;7.230;2022-08-25T11:06:05;34.30;52.20
11497;DHT22;5805;51.542;7.230;2022-08-25T11:08:34;34.40;52.10
11497;DHT22;5805;51.542;7.230;2022-08-25T11:11:04;34.40;51.60
11497;DHT22;5805;51.542;7.230;2022-08-25T11:13:37;34.40;50.90
11497;DHT22;5805;51.542;7.230;2022-08-25T11:16:09;34.40;52.00
11497;DHT22;5805;51.542;7.230;2022-08-25T11:18:38;34.10;50.90
11497;DHT22;5805;51.542;7.230;2022-08-25T11:21:13;34.00;51.70
11497;DHT22;5805;51.542;7.230;2022-08-25T11:23:44;34.10;51.70
11497;DHT22;5805;51.542;7.230;2022-08-25T11:26:12;34.10;51.10
11497;DHT22;5805;51.542;7.230;2022-08-25T11:28:49;34.20;50.80
11497;DHT22;5805;51.542;7.230;2022-08-25T11:31:17;34.30;50.20
11497;DHT22;5805;51.542;7.230;2022-08-25T11:33:44;34.40;50.60
11497;DHT22;5805;51.542;7.230;2022-08-25T11:36:15;34.30;50.30
11497;DHT22;5805;51.542;7.230;2022-08-25T11:38:51;34.40;50.40
11497;DHT22;5805;51.542;7.230;2022-08-25T11:41:26;34.40;49.90
11497;DHT22;5805;51.542;7.230;2022-08-25T11:44:10;34.50;50.20
11497;DHT22;5805;51.542;7.230;2022-08-25T11:46:47;34.60;49.60
11497;DHT22;5805;51.542;7.230;2022-08-25T11:49:29;34.60;49.10
11497;DHT22;5805;51.542;7.230;2022-08-25T11:52:04;34.60;48.70
11497;DHT22;5805;51.542;7.230;2022-08-25T11:54:35;34.60;48.70
11497;DHT22;5805;51.542;7.230;2022-08-25T11:57:04;34.70;48.70
11497;DHT22;5805;51.542;7.230;2022-08-25T12:00:00;34.60;47.80
11497;DHT22;5805;51.542;7.230;2022-08-25T12:02:30;34.60;48.20
11497;DHT22;5805;51.542;7.230;2022-08-25T12:04:57;34.60;48.00
11497;DHT22;5805;51.542;7.230;2022-08-25T12:07:27;34.60;48.10
11497;DHT22;5805;51.542;7.230;2022-08-25T12:10:18;34.70;48.70
11497;DHT22;5805;51.542;7.230;2022-08-25T12:13:02;34.70;47.90
11497;DHT22;5805;51.542;7.230;2022-08-25T12:15:33;34.70;48.10
11497;DHT22;5805;51.542;7.230;2022-08-25T12:18:38;34.70;47.50
11497;DHT22;5805;51.542;7.230;2022-08-25T12:21:09;34.60;47.30
11497;DHT22;5805;51.542;7.230;2022-08-25T12:23:38;34.60;48.30
11497;DHT22;5805;51.542;7.230;2022-08-25T12:26:08;34.70;48.10
11497;DHT22;5805;51.542;7.230;2022-08-25T12:29:00;34.70;48.20
11497;DHT22;5805;51.542;7.230;2022-08-25T12:31:42;34.80;47.10
11497;DHT22;5805;51.542;7.230;2022-08-25T12:34:20;34.70;47.10
11497;DHT22;5805;51.542;7.230;2022-08-25T12:36:55;34.60;46.80
11497;DHT22;5805;51.542;7.230;2022-08-25T12:39:29;34.60;47.60
11497;DHT22;5805;51.542;7.230;2022-08-25T12:41:58;34.70;47.50
11497;DHT22;5805;51.542;7.230;2022-08-25T12:44:39;34.60;47.40
11497;DHT22;5805;51.542;7.230;2022-08-25T12:47:12;34.60;47.10
11497;DHT22;5805;51.542;7.230;2022-08-25T12:49:49;34.60;47.00
11497;DHT22;5805;51.542;7.230;2022-08-25T12:52:16;34.60;46.70
11497;DHT22;5805;51.542;7.230;2022-08-25T12:54:47;34.60;46.40
11497;DHT22;5805;51.542;7.230;2022-08-25T12:57:25;34.50;46.00
11497;DHT22;5805;51.542;7.230;2022-08-25T12:59:53;34.50;45.90
11497;DHT22;5805;51.542;7.230;2022-08-25T13:02:47;34.40;45.90
11497;DHT22;5805;51.542;7.230;2022-08-25T13:11:31;34.20;45.70
11497;DHT22;5805;51.542;7.230;2022-08-25T13:14:03;34.20;46.40
11497;DHT22;5805;51.542;7.230;2022-08-25T13:16:31;34.20;46.90
11497;DHT22;5805;51.542;7.230;2022-08-25T13:18:57;34.20;46.30
11497;DHT22;5805;51.542;7.230;2022-08-25T13:21:28;34.10;46.80
11497;DHT22;5805;51.542;7.230;2022-08-25T13:23:57;34.20;46.90
11497;DHT22;5805;51.542;7.230;2022-08-25T13:26:25;34.10;46.70
11497;DHT22;5805;51.542;7.230;2022-08-25T13:28:58;34.10;46.30
11497;DHT22;5805;51.542;7.230;2022-08-25T13:31:24;34.10;45.70
11497;DHT22;5805;51.542;7.230;2022-08-25T13:33:52;34.00;46.20
11497;DHT22;5805;51.542;7.230;2022-08-25T13:36:18;34.00;46.20
11497;DHT22;5805;51.542;7.230;2022-08-25T13:38:46;33.90;45.60
11497;DHT22;5805;51.542;7.230;2022-08-25T13:41:17;33.90;45.80
11497;DHT22;5805;51.542;7.230;2022-08-25T13:43:43;33.80;45.90
11497;DHT22;5805;51.542;7.230;2022-08-25T13:46:10;33.80;45.50
11497;DHT22;5805;51.542;7.230;2022-08-25T13:48:38;33.80;45.70
11497;DHT22;5805;51.542;7.230;2022-08-25T13:51:08;33.70;45.30
11497;DHT22;5805;51.542;7.230;2022-08-25T13:53:34;33.60;46.00
11497;DHT22;5805;51.542;7.230;2022-08-25T13:56:01;33.60;45.80
11497;DHT22;5805;51.542;7.230;2022-08-25T13:58:29;33.60;46.00
11497;DHT22;5805;51.542;7.230;2022-08-25T14:01:07;33.60;45.80
11497;DHT22;5805;51.542;7.230;2022-08-25T14:03:37;33.50;45.80
11497;DHT22;5805;51.542;7.230;2022-08-25T14:06:06;33.40;45.50
11497;DHT22;5805;51.542;7.230;2022-08-25T14:08:34;33.40;45.50
11497;DHT22;5805;51.542;7.230;2022-08-25T14:11:08;33.20;45.40
11497;DHT22;5805;51.542;7.230;2022-08-25T14:13:35;33.20;45.50
11497;DHT22;5805;51.542;7.230;2022-08-25T14:16:10;33.10;45.60
11497;DHT22;5805;51.542;7.230;2022-08-25T14:18:37;33.10;45.90
11497;DHT22;5805;51.542;7.230;2022-08-25T14:21:09;33.10;45.50
11497;DHT22;5805;51.542;7.230;2022-08-25T14:23:36;33.00;46.50
11497;DHT22;5805;51.542;7.230;2022-08-25T14:26:02;33.00;45.90
11497;DHT22;5805;51.542;7.230;2022-08-25T14:28:29;33.00;46.30
11497;DHT22;5805;51.542;7.230;2022-08-25T14:30:57;33.00;46.40
11497;DHT22;5805;51.542;7.230;2022-08-25T14:33:27;33.00;46.20
11497;DHT22;5805;51.542;7.230;2022-08-25T14:35:57;33.00;45.90
11497;DHT22;5805;51.542;7.230;2022-08-25T14:38:23;32.90;45.90
11497;DHT22;5805;51.542;7.230;2022-08-25T14:40:49;32.80;46.00
11497;DHT22;5805;51.542;7.230;2022-08-25T14:43:15;32.80;45.90
11497;DHT22;5805;51.542;7.230;2022-08-25T14:45:43;32.80;46.40
11497;DHT22;5805;51.542;7.230;2022-08-25T14:48:14;32.70;46.20
11497;DHT22;5805;51.542;7.230;2022-08-25T14:50:42;32.70;46.20
11497;DHT22;5805;51.542;7.230;2022-08-25T14:53:10;32.70;46.80
11497;DHT22;5805;51.542;7.230;2022-08-25T14:55:36;32.60;46.10
11497;DHT22;5805;51.542;7.230;2022-08-25T14:58:02;32.60;46.40
11497;DHT22;5805;51.542;7.230;2022-08-25T15:00:27;32.70;46.70
11497;DHT22;5805;51.542;7.230;2022-08-25T15:02:53;32.70;46.70
11497;DHT22;5805;51.542;7.230;2022-08-25T15:05:22;32.70;47.10
11497;DHT22;5805;51.542;7.230;2022-08-25T15:07:48;32.70;46.10
11497;DHT22;5805;51.542;7.230;2022-08-25T15:10:16;32.60;46.00
11497;DHT22;5805;51.542;7.230;2022-08-25T15:12:42;32.60;46.20
11497;DHT22;5805;51.542;7.230;2022-08-25T15:15:08;32.60;46.30
11497;DHT22;5805;51.542;7.230;2022-08-25T15:17:34;32.60;46.50
11497;DHT22;5805;51.542;7.230;2022-08-25T15:19:59;32.50;46.30
11497;DHT22;5805;51.542;7.230;2022-08-25T15:22:25;32.50;46.60
11497;DHT22;5805;51.542;7.230;2022-08-25T15:24:51;32.50;46.90
11497;DHT22;5805;51.542;7.230;2022-08-25T15:27:20;32.50;46.80
11497;DHT22;5805;51.542;7.230;2022-08-25T15:29:46;32.40;46.90
11497;DHT22;5805;51.542;7.230;2022-08-25T15:32:12;32.40;47.00
11497;DHT22;5805;51.542;7.230;2022-08-25T15:34:37;32.40;47.30
11497;DHT22;5805;51.542;7.230;2022-08-25T15:37:06;32.30;47.00
11497;DHT22;5805;51.542;7.230;2022-08-25T15:39:32;32.30;47.00
11497;DHT22;5805;51.542;7.230;2022-08-25T15:41:58;32.30;47.00
11497;DHT22;5805;51.542;7.230;2022-08-25T15:44:25;32.20;47.20
11497;DHT22;5805;51.542;7.230;2022-08-25T15:46:51;32.30;47.40
11497;DHT22;5805;51.542;7.230;2022-08-25T15:49:17;32.30;47.40
11497;DHT22;5805;51.542;7.230;2022-08-25T15:51:43;32.20;47.10
11497;DHT22;5805;51.542;7.230;2022-08-25T15:54:08;32.10;46.10
11497;DHT22;5805;51.542;7.230;2022-08-25T15:56:35;31.90;46.30
11497;DHT22;5805;51.542;7.230;2022-08-25T15:59:03;31.80;46.70
11497;DHT22;5805;51.542;7.230;2022-08-25T16:01:30;31.70;46.70